Time;durP1;ratioP1;P1;durP2;ratioP2;P2;SDS_P1;SDS_P2;PMS_P1;PMS_P2;Temp;Humidity;BMP_temperature;BMP_pressure;BME280_temperature;BME280_humidity;BME280_pressure;Samples;Min_cycle;Max_cycle;Signal;HPM_P1;HPM_P2
2022/03/16 00:01:48;;;;;;;;;17.33;14.33;;;;;11.92;76.80;101834.25;5025908;28;45323;-68
2022/03/16 00:04:14;;;;;;;;;18.67;16.00;;;;;11.93;76.82;101827.81;5021901;28;45424;-67
2022/03/16 00:06:39;;;;;;;;;16.33;14.33;;;;;11.93;76.70;101827.81;5024994;28;45324;-68
2022/03/16 00:09:05;;;;;;;;;15.33;15.33;;;;;11.89;76.24;101817.34;5025268;28;46526;-68
2022/03/16 00:11:30;;;;;;;;;15.00;13.67;;;;;11.94;76.51;101829.56;5023800;28;45336;-68
2022/03/16 00:13:55;;;;;;;;;16.33;12.67;;;;;11.96;76.43;101827.56;5024141;28;45862;-68
2022/03/16 00:16:21;;;;;;;;;16.33;14.33;;;;;11.97;75.59;101831.16;5026307;28;45423;-68
2022/03/16 00:18:46;;;;;;;;;13.33;11.67;;;;;11.98;76.04;101828.28;5025186;28;46360;-68
2022/03/16 00:21:11;;;;;;;;;17.00;15.00;;;;;11.97;75.75;101828.44;5025824;28;45322;-68
2022/03/16 00:23:37;;;;;;;;;17.33;12.33;;;;;11.98;75.84;101831.00;5023988;28;45482;-68
2022/03/16 00:26:03;;;;;;;;;18.67;14.33;;;;;11.95;76.15;101830.41;5026059;28;45647;-68
2022/03/16 00:28:28;;;;;;;;;14.67;14.33;;;;;11.97;76.14;101825.72;5023211;28;47137;-68
2022/03/16 00:30:54;;;;;;;;;15.00;14.00;;;;;11.98;75.98;101822.84;5024050;28;45198;-68
2022/03/16 00:33:19;;;;;;;;;18.67;15.33;;;;;11.95;76.28;101817.66;5025307;28;45447;-68
2022/03/16 00:35:44;;;;;;;;;13.33;12.00;;;;;12.01;76.45;101816.28;5039693;28;45248;-68
2022/03/16 00:38:12;;;;;;;;;20.00;17.67;;;;;11.98;76.26;101813.84;5024781;28;45529;-68
2022/03/16 00:40:37;;;;;;;;;18.67;16.00;;;;;12.00;75.95;101820.00;5024776;28;46067;-68
2022/03/16 00:43:03;;;;;;;;;20.67;19.00;;;;;12.03;76.04;101820.59;5024887;28;45370;-68
2022/03/16 00:45:28;;;;;;;;;19.00;17.00;;;;;12.04;75.84;101821.47;5025628;28;45658;-68
2022/03/16 00:47:53;;;;;;;;;10.33;9.00;;;;;11.97;76.76;101815.69;5024750;28;45482;-68
2022/03/16 00:50:19;;;;;;;;;14.00;14.00;;;;;12.00;76.27;101815.41;5025184;28;45251;-68
2022/03/16 00:52:44;;;;;;;;;16.33;13.00;;;;;11.99;76.25;101805.50;5023722;28;45335;-68
2022/03/16 00:55:10;;;;;;;;;12.67;11.33;;;;;12.04;76.00;101810.56;5022284;28;46416;-68
2022/03/16 00:57:35;;;;;;;;;14.33;14.33;;;;;12.03;75.83;101804.25;5024342;28;45614;-68
2022/03/16 01:00:03;;;;;;;;;17.33;13.33;;;;;12.05;75.41;101802.25;5038900;28;45831;-68
2022/03/16 01:02:28;;;;;;;;;17.33;13.67;;;;;12.02;75.40;101796.22;5024708;28;45300;-68
2022/03/16 01:04:53;;;;;;;;;15.33;15.33;;;;;12.01;75.75;101795.34;5024691;28;45685;-68
2022/03/16 01:07:19;;;;;;;;;15.67;14.33;;;;;12.02;75.71;101797.06;5023779;28;47143;-68
2022/03/16 01:09:44;;;;;;;;;16.33;16.33;;;;;12.00;75.67;101793.63;5023015;28;45275;-68
2022/03/16 01:12:10;;;;;;;;;16.00;15.00;;;;;11.99;76.10;101791.00;5025071;28;45247;-68
2022/03/16 01:14:35;;;;;;;;;17.67;16.67;;;;;11.97;75.68;101790.31;5024945;28;45517;-68
2022/03/16 01:17:01;;;;;;;;;18.00;15.33;;;;;11.95;75.57;101782.25;5023323;28;46496;-68
2022/03/16 01:19:26;;;;;;;;;16.67;16.00;;;;;11.93;75.90;101783.38;5024445;28;45422;-69
2022/03/16 01:21:53;;;;;;;;;19.00;16.00;;;;;11.92;76.02;101781.66;5023581;28;45926;-68
2022/03/16 01:24:19;;;;;;;;;23.33;21.00;;;;;11.90;75.98;101775.50;5023425;28;45526;-68
2022/03/16 01:26:44;;;;;;;;;19.67;19.67;;;;;11.92;76.00;101776.19;5023109;28;47530;-68
2022/03/16 01:29:10;;;;;;;;;19.00;18.00;;;;;11.90;76.41;101767.31;5023888;28;45276;-68
2022/03/16 01:31:35;;;;;;;;;20.33;18.00;;;;;11.93;76.42;101767.91;5023708;28;45349;-68
2022/03/16 01:34:00;;;;;;;;;19.00;14.00;;;;;11.95;76.20;101768.66;5034012;28;45353;-69
2022/03/16 01:36:26;;;;;;;;;15.67;15.00;;;;;11.96;76.01;101759.47;5024805;28;46326;-68
2022/03/16 01:38:51;;;;;;;;;19.67;15.67;;;;;11.96;75.98;101761.34;5029964;28;45774;-68
2022/03/16 01:41:17;;;;;;;;;16.67;16.33;;;;;11.95;75.43;101757.75;5024693;28;45290;-68
2022/03/16 01:43:42;;;;;;;;;22.33;18.33;;;;;11.93;75.85;101748.84;5024203;28;45528;-68
2022/03/16 01:46:08;;;;;;;;;17.67;16.00;;;;;11.88;75.67;101756.56;5032281;28;47184;-68
2022/03/16 01:48:34;;;;;;;;;14.00;14.00;;;;;11.86;75.71;101754.94;5021383;28;45479;-68
2022/03/16 01:51:00;;;;;;;;;17.33;15.33;;;;;11.87;75.86;101753.97;5015834;28;45141;-68
2022/03/16 01:53:26;;;;;;;;;15.00;15.00;;;;;11.84;76.37;101757.81;5022968;28;45395;-68
2022/03/16 01:55:52;;;;;;;;;21.33;19.33;;;;;11.84;75.53;101759.66;5022933;28;47019;-68
2022/03/16 01:58:17;;;;;;;;;17.33;14.00;;;;;11.81;75.83;101749.91;5023399;28;45410;-68
2022/03/16 02:00:43;;;;;;;;;19.67;17.67;;;;;11.83;75.62;101755.22;5024364;28;45267;-69
2022/03/16 02:03:09;;;;;;;;;21.67;17.67;;;;;11.82;76.01;101750.78;5024160;28;45422;-68
2022/03/16 02:05:35;;;;;;;;;18.00;15.67;;;;;11.77;76.14;101759.31;5024023;28;45287;-69
2022/03/16 02:08:02;;;;;;;;;18.33;16.00;;;;;11.75;76.47;101755.03;5038530;28;45338;-67
2022/03/16 02:10:27;;;;;;;;;17.00;16.33;;;;;11.74;76.25;101764.16;5018519;28;45279;-68
2022/03/16 02:12:53;;;;;;;;;18.67;18.67;;;;;11.76;75.69;101764.94;5023514;28;45320;-68
2022/03/16 02:15:21;;;;;;;;;18.00;18.00;;;;;11.75;76.76;101768.63;5023830;28;45740;-68
2022/03/16 02:17:46;;;;;;;;;18.00;16.33;;;;;11.73;75.81;101762.41;5023560;28;45472;-68
2022/03/16 02:20:12;;;;;;;;;20.00;18.33;;;;;11.69;76.08;101754.50;5023903;28;45233;-68
2022/03/16 02:23:07;;;;;;;;;21.00;18.33;;;;;11.71;76.34;101766.13;5022617;28;45243;-68
2022/03/16 02:25:47;;;;;;;;;21.33;18.00;;;;;11.70;76.89;101750.78;5019910;28;46785;-68
2022/03/16 02:28:12;;;;;;;;;15.00;15.00;;;;;11.69;76.45;101749.06;5010578;28;45474;-68
2022/03/16 02:30:38;;;;;;;;;19.33;19.33;;;;;11.68;75.85;101750.09;5023773;28;45804;-68
2022/03/16 02:33:03;;;;;;;;;16.33;16.33;;;;;11.63;76.43;101746.00;5023930;28;45383;-68
2022/03/16 02:35:31;;;;;;;;;21.33;20.00;;;;;11.64;76.39;101737.72;5023565;28;45258;-68
2022/03/16 02:37:59;;;;;;;;;19.33;19.33;;;;;11.61;76.33;101732.53;5023229;28;45469;-68
2022/03/16 02:40:25;;;;;;;;;20.00;17.67;;;;;11.56;76.41;101733.91;5023596;28;45262;-68
2022/03/16 02:42:51;;;;;;;;;20.33;16.33;;;;;11.55;76.42;101733.03;5023457;28;45366;-68
2022/03/16 02:45:17;;;;;;;;;21.00;19.00;;;;;11.52;76.32;101733.31;5023297;28;45466;-68
2022/03/16 02:47:42;;;;;;;;;19.00;18.67;;;;;11.47;76.45;101741.00;5021565;28;45392;-69
2022/03/16 02:50:09;;;;;;;;;20.67;18.33;;;;;11.42;76.78;101736.94;5023650;28;45402;-68
2022/03/16 02:52:35;;;;;;;;;19.00;19.00;;;;;11.39;77.36;101737.22;5038875;28;45610;-68
2022/03/16 02:55:00;;;;;;;;;25.67;21.00;;;;;11.32;77.46;101736.88;5023052;28;46174;-67
2022/03/16 02:57:26;;;;;;;;;18.67;16.33;;;;;11.29;77.65;101729.81;5023207;28;45220;-68
2022/03/16 02:59:51;;;;;;;;;20.33;19.33;;;;;11.21;77.50;101728.72;5019990;28;45430;-68
2022/03/16 03:02:16;;;;;;;;;21.67;20.33;;;;;11.16;77.78;101739.16;5024023;28;45188;-68
2022/03/16 03:04:42;;;;;;;;;23.00;20.00;;;;;11.13;78.20;101736.66;5022515;28;45557;-68
2022/03/16 03:07:09;;;;;;;;;23.33;18.67;;;;;11.11;78.36;101733.19;5023429;28;45335;-68
2022/03/16 03:09:35;;;;;;;;;24.00;21.00;;;;;11.08;78.29;101736.19;5022769;28;45474;-68
2022/03/16 03:12:02;;;;;;;;;23.33;21.00;;;;;11.12;78.32;101740.38;5022528;28;45327;-68
2022/03/16 03:14:27;;;;;;;;;20.33;19.00;;;;;11.08;78.09;101739.78;5022395;28;46987;-68
2022/03/16 03:16:52;;;;;;;;;24.67;20.00;;;;;11.04;78.52;101738.28;5021700;28;45590;-68
2022/03/16 03:19:17;;;;;;;;;22.00;19.67;;;;;11.07;78.71;101734.47;5022507;28;45340;-68
2022/03/16 03:21:43;;;;;;;;;28.00;23.67;;;;;11.10;78.46;101736.94;5022418;28;45236;-68
2022/03/16 03:24:08;;;;;;;;;22.00;18.33;;;;;11.09;78.68;101737.94;5021759;28;46286;-68
2022/03/16 03:26:34;;;;;;;;;27.00;23.33;;;;;11.11;78.76;101746.81;5022684;28;45427;-68
2022/03/16 03:29:00;;;;;;;;;24.67;22.33;;;;;11.12;79.04;101741.25;5022266;28;45650;-68
2022/03/16 03:31:25;;;;;;;;;20.67;17.00;;;;;11.15;79.24;101740.13;5023355;28;45293;-68
2022/03/16 03:33:50;;;;;;;;;22.00;19.00;;;;;11.23;78.48;101737.63;5022399;28;45316;-70
2022/03/16 03:36:16;;;;;;;;;26.00;24.00;;;;;11.24;78.48;101725.78;5022744;28;45359;-68
2022/03/16 03:38:41;;;;;;;;;28.00;22.33;;;;;11.29;78.07;101737.13;5021961;28;45250;-68
2022/03/16 03:41:06;;;;;;;;;27.00;23.33;;;;;11.35;77.65;101738.44;5021676;28;45299;-68
2022/03/16 03:43:32;;;;;;;;;24.67;24.67;;;;;11.36;77.48;101738.31;5022106;28;46383;-68
2022/03/16 03:45:57;;;;;;;;;24.50;22.75;;;;;11.38;77.69;101741.78;5021340;28;45477;-68
2022/03/16 03:48:23;;;;;;;;;26.00;24.00;;;;;11.38;77.46;101736.34;5022083;28;45343;-68
2022/03/16 03:50:48;;;;;;;;;23.00;20.67;;;;;11.35;77.65;101733.88;5021586;28;45480;-68
2022/03/16 03:53:14;;;;;;;;;31.75;23.00;;;;;11.29;78.11;101735.25;5020663;28;48306;-68
2022/03/16 03:55:39;;;;;;;;;27.00;26.00;;;;;11.25;78.54;101741.09;5022592;28;45466;-68
2022/03/16 03:58:04;;;;;;;;;29.33;24.33;;;;;11.26;78.12;101738.22;5021926;28;45391;-68
2022/03/16 04:00:30;;;;;;;;;24.67;23.00;;;;;11.30;78.12;101738.84;5023123;28;45470;-68
2022/03/16 04:02:55;;;;;;;;;23.00;21.00;;;;;11.25;78.39;101724.78;5021996;28;46689;-68
2022/03/16 04:05:20;;;;;;;;;28.33;24.00;;;;;11.24;78.10;101750.25;5021055;28;45561;-68
2022/03/16 04:07:48;;;;;;;;;25.67;22.67;;;;;11.25;78.64;101741.09;5022036;28;45477;-68
2022/03/16 04:10:14;;;;;;;;;25.00;25.00;;;;;11.24;77.99;101734.78;5021593;28;45304;-68
2022/03/16 04:12:39;;;;;;;;;17.67;17.67;;;;;11.21;77.63;101729.59;5021601;28;45544;-68
2022/03/16 04:15:05;;;;;;;;;28.00;24.50;;;;;11.20;77.64;101722.44;5020541;28;45835;-68
2022/03/16 04:17:30;;;;;;;;;27.00;24.00;;;;;11.17;77.72;101728.16;5021150;28;45522;-68
2022/03/16 04:19:56;;;;;;;;;25.33;22.67;;;;;11.16;77.86;101723.69;5021918;28;45811;-68
2022/03/16 04:22:21;;;;;;;;;25.25;23.50;;;;;11.12;78.06;101711.31;5022172;28;46212;-68
2022/03/16 04:24:47;;;;;;;;;22.75;21.75;;;;;11.09;78.17;101702.56;5020165;28;45545;-68
2022/03/16 04:27:12;;;;;;;;;24.00;24.00;;;;;11.06;78.30;101700.97;5022322;28;45323;-68
2022/03/16 04:29:38;;;;;;;;;25.50;24.00;;;;;10.99;78.43;101690.72;5021871;28;45459;-69
2022/03/16 04:32:03;;;;;;;;;28.33;24.33;;;;;10.97;78.17;101690.84;5020913;28;47047;-68
2022/03/16 04:34:29;;;;;;;;;23.67;20.00;;;;;10.94;78.58;101699.28;5016791;28;45495;-68
2022/03/16 04:36:54;;;;;;;;;26.67;22.00;;;;;10.92;78.46;101701.25;5022492;28;45293;-68
2022/03/16 04:39:20;;;;;;;;;21.00;18.33;;;;;10.91;78.75;101704.97;5025569;28;45289;-68
2022/03/16 04:41:45;;;;;;;;;28.00;21.33;;;;;10.89;78.68;101691.50;5025298;28;45943;-68
2022/03/16 04:44:11;;;;;;;;;29.00;22.33;;;;;10.85;79.06;101683.72;5023565;28;46092;-68
2022/03/16 04:46:36;;;;;;;;;25.33;23.00;;;;;10.82;78.95;101682.13;5024206;28;45940;-68
2022/03/16 04:49:01;;;;;;;;;28.25;26.50;;;;;10.79;79.25;101685.09;5025058;28;45358;-68
2022/03/16 04:51:27;;;;;;;;;52.00;44.50;;;;;10.76;79.23;101681.75;5035092;28;47851;-68
2022/03/16 04:53:52;;;;;;;;;31.50;26.00;;;;;10.71;79.29;101682.16;5023747;28;45430;-68
2022/03/16 04:56:17;;;;;;;;;25.33;22.00;;;;;10.74;79.38;101681.03;5024422;28;45609;-68
2022/03/16 04:58:43;;;;;;;;;26.00;23.00;;;;;10.77;79.50;101691.66;5025097;28;45367;-68
2022/03/16 05:01:08;;;;;;;;;25.67;23.33;;;;;10.71;79.14;101687.59;5025195;28;45453;-68
2022/03/16 05:03:34;;;;;;;;;27.50;24.75;;;;;10.66;79.57;101680.81;5023165;28;45807;-68
2022/03/16 05:05:59;;;;;;;;;30.25;23.00;;;;;10.64;79.82;101699.97;5024866;28;45323;-68
2022/03/16 05:08:24;;;;;;;;;27.67;24.67;;;;;10.65;79.88;101698.97;5024844;28;45367;-68
2022/03/16 05:10:50;;;;;;;;;30.25;24.50;;;;;10.64;79.75;101699.97;5022080;28;46504;-69
2022/03/16 05:13:15;;;;;;;;;20.33;18.67;;;;;10.61;79.78;101692.03;5022319;28;45586;-68
2022/03/16 05:15:41;;;;;;;;;22.50;22.50;;;;;10.57;80.06;101687.00;5024964;28;45725;-68
2022/03/16 05:18:06;;;;;;;;;26.00;24.50;;;;;10.60;79.92;101679.44;5024112;28;45232;-68
2022/03/16 05:20:31;;;;;;;;;19.33;19.33;;;;;10.65;79.63;101682.66;5035245;28;47109;-68
2022/03/16 05:22:57;;;;;;;;;22.00;22.00;;;;;10.67;79.60;101683.38;5039175;28;45274;-68
2022/03/16 05:25:30;;;;;;;;;24.00;21.00;;;;;10.68;79.25;101678.81;5024340;28;45418;-68
2022/03/16 05:27:56;;;;;;;;;25.00;22.00;;;;;10.67;79.53;101685.22;5022406;28;45554;-68
2022/03/16 05:30:23;;;;;;;;;22.25;21.50;;;;;10.70;79.47;101690.44;5022786;28;47575;-68
2022/03/16 05:32:52;;;;;;;;;28.50;23.75;;;;;10.72;79.04;101685.75;5023242;28;45572;-68
2022/03/16 05:35:18;;;;;;;;;24.25;21.75;;;;;10.71;79.39;101698.47;5034323;28;45401;-68
2022/03/16 05:37:43;;;;;;;;;28.00;23.33;;;;;10.69;79.56;101711.31;5036399;28;45697;-68
2022/03/16 05:40:09;;;;;;;;;26.75;23.50;;;;;10.58;80.10;101689.59;5023258;28;46182;-69
2022/03/16 05:42:35;;;;;;;;;24.00;20.75;;;;;10.70;79.85;101704.00;5019185;28;45643;-67
2022/03/16 05:45:01;;;;;;;;;31.00;24.33;;;;;10.73;79.87;101714.66;5023476;28;45401;-68
2022/03/16 05:47:27;;;;;;;;;28.50;22.25;;;;;10.73;80.03;101720.94;5014961;28;45233;-68
2022/03/16 05:49:56;;;;;;;;;30.25;26.25;;;;;10.70;80.05;101718.47;5023296;28;46095;-68
2022/03/16 05:52:23;;;;;;;;;26.50;24.50;;;;;10.74;79.92;101721.81;5023629;28;45264;-69
2022/03/16 05:54:50;;;;;;;;;30.00;24.00;;;;;10.71;79.82;101709.34;5023228;28;45454;-68
2022/03/16 05:57:15;;;;;;;;;29.00;23.67;;;;;10.69;80.05;101703.16;5024346;28;45282;-68
2022/03/16 05:59:42;;;;;;;;;29.00;22.75;;;;;10.64;80.01;101702.69;5021721;28;47208;-70
2022/03/16 06:02:08;;;;;;;;;26.25;23.50;;;;;10.62;80.11;101710.06;5009739;28;45418;-68
2022/03/16 06:04:34;;;;;;;;;26.00;24.67;;;;;10.64;79.80;101708.09;5020984;28;45568;-68
2022/03/16 06:06:59;;;;;;;;;25.75;24.00;;;;;10.70;80.45;101723.91;5022458;28;45812;-68
2022/03/16 06:09:25;;;;;;;;;22.00;20.25;;;;;10.72;80.04;101713.78;5023032;28;45614;-68
2022/03/16 06:11:50;;;;;;;;;28.25;23.00;;;;;10.76;80.13;101709.81;5022215;28;45366;-68
2022/03/16 06:14:15;;;;;;;;;27.75;22.75;;;;;10.78;79.85;101704.25;5023150;28;45338;-68
2022/03/16 06:16:41;;;;;;;;;34.25;28.25;;;;;10.85;79.38;101710.91;5024008;28;45419;-68
2022/03/16 06:19:06;;;;;;;;;32.75;28.50;;;;;10.88;79.09;101714.22;5022802;28;46471;-68
2022/03/16 06:21:32;;;;;;;;;29.25;25.00;;;;;10.87;79.50;101720.69;5023482;28;46028;-68
2022/03/16 06:23:57;;;;;;;;;35.75;27.75;;;;;10.86;79.36;101712.66;5022983;28;45476;-68
2022/03/16 06:26:22;;;;;;;;;29.75;25.50;;;;;10.82;79.55;101697.56;5023561;28;45338;-68
2022/03/16 06:28:48;;;;;;;;;30.50;27.75;;;;;10.80;79.60;101702.28;5022190;28;46449;-69
2022/03/16 06:31:13;;;;;;;;;29.67;25.67;;;;;10.82;79.58;101701.13;5023282;28;45267;-68
2022/03/16 06:33:38;;;;;;;;;25.75;23.75;;;;;10.89;79.56;101715.94;5022754;28;45410;-68
2022/03/16 06:36:04;;;;;;;;;27.67;25.67;;;;;10.91;79.42;101718.56;5023320;28;45692;-68
2022/03/16 06:38:29;;;;;;;;;31.00;25.00;;;;;10.90;79.74;101716.81;5021215;28;48360;-68
2022/03/16 06:40:55;;;;;;;;;32.50;29.75;;;;;10.89;79.65;101720.53;5021877;28;45334;-68
2022/03/16 06:43:21;;;;;;;;;29.50;26.75;;;;;10.93;79.85;101731.03;5022154;28;45216;-68
2022/03/16 06:45:47;;;;;;;;;36.00;32.50;;;;;10.90;79.59;101731.28;5023263;28;45236;-68
2022/03/16 06:48:12;;;;;;;;;31.67;25.33;;;;;10.98;79.81;101729.78;5022026;28;45426;-68
2022/03/16 06:50:38;;;;;;;;;29.25;25.75;;;;;11.05;78.79;101733.72;5022664;28;45238;-68
2022/03/16 06:53:03;;;;;;;;;33.00;26.00;;;;;11.12;78.97;101740.38;5022571;28;45383;-69
2022/03/16 06:55:29;;;;;;;;;26.50;25.25;;;;;11.13;78.53;101736.66;5021465;28;45604;-69
2022/03/16 06:57:55;;;;;;;;;25.25;25.00;;;;;11.15;78.79;101740.13;5021158;28;45703;-69
2022/03/16 07:00:20;;;;;;;;;27.00;24.00;;;;;11.20;78.80;101751.47;5021563;28;45402;-69
2022/03/16 07:03:00;;;;;;;;;26.33;23.33;;;;;11.24;78.69;101755.69;5022390;28;45465;-70
2022/03/16 07:05:30;;;;;;;;;32.00;27.00;;;;;11.25;78.59;101746.53;5021972;28;45407;-69
2022/03/16 07:08:00;;;;;;;;;25.67;24.33;;;;;11.31;78.37;101752.34;5021842;28;45517;-67
2022/03/16 07:10:27;;;;;;;;;27.00;26.00;;;;;11.31;78.35;101746.03;5020976;28;45379;-69
2022/03/16 07:12:52;;;;;;;;;28.33;26.00;;;;;11.34;78.50;101751.19;5020190;28;45279;-69
2022/03/16 07:15:18;;;;;;;;;31.33;26.67;;;;;11.29;78.69;101750.72;5022757;28;45159;-69
2022/03/16 07:17:44;;;;;;;;;35.25;26.75;;;;;11.34;78.39;101740.31;5021503;28;46297;-68
2022/03/16 07:20:10;;;;;;;;;37.25;31.75;;;;;11.35;78.14;101747.47;5022367;28;45387;-68
2022/03/16 07:22:36;;;;;;;;;37.00;30.00;;;;;11.40;77.92;101744.34;5036306;28;45275;-67
2022/03/16 07:25:03;;;;;;;;;30.75;27.25;;;;;11.39;78.11;101748.09;5022369;28;45628;-67
2022/03/16 07:27:29;;;;;;;;;36.75;30.00;;;;;11.42;78.19;101748.69;5018875;28;47011;-67
2022/03/16 07:29:54;;;;;;;;;32.33;28.00;;;;;11.41;78.51;101746.97;5019228;28;45345;-67
2022/03/16 07:32:22;;;;;;;;;36.25;30.25;;;;;11.42;78.53;101742.38;5018448;28;45491;-68
2022/03/16 07:34:48;;;;;;;;;31.75;30.00;;;;;11.47;78.57;101746.44;5019651;28;45658;-68
2022/03/16 07:37:14;;;;;;;;;30.75;26.75;;;;;11.53;78.24;101736.91;5022050;28;46207;-68
2022/03/16 07:39:40;;;;;;;;;37.50;30.75;;;;;11.57;78.27;101741.94;5020487;28;45477;-68
2022/03/16 07:42:05;;;;;;;;;34.00;27.00;;;;;11.60;78.16;101735.38;5021255;28;45268;-68
2022/03/16 07:44:31;;;;;;;;;35.00;28.00;;;;;11.64;77.31;101736.84;5021695;28;45423;-68
2022/03/16 07:46:56;;;;;;;;;27.00;22.75;;;;;11.68;77.46;101744.63;5021358;28;46068;-68
2022/03/16 07:49:21;;;;;;;;;39.50;32.25;;;;;11.71;77.53;101741.63;5021049;28;45425;-69
2022/03/16 07:51:47;;;;;;;;;34.00;31.75;;;;;11.74;76.98;101740.53;5021020;28;46046;-68
2022/03/16 07:54:12;;;;;;;;;33.25;29.00;;;;;11.76;77.42;101737.69;5021917;28;45426;-69
2022/03/16 07:56:37;;;;;;;;;29.25;29.25;;;;;11.80;77.90;101747.31;5021398;28;46165;-69
2022/03/16 07:59:03;;;;;;;;;33.25;27.75;;;;;11.83;77.32;101747.94;5021420;28;45350;-68
2022/03/16 08:01:28;;;;;;;;;36.00;33.50;;;;;11.90;77.11;101751.00;5021864;28;45473;-69
2022/03/16 08:03:54;;;;;;;;;32.50;27.75;;;;;11.92;76.62;101746.25;5020200;28;45429;-69
2022/03/16 08:06:20;;;;;;;;;33.50;30.75;;;;;11.98;76.78;101745.75;5021315;28;45453;-67
2022/03/16 08:08:46;;;;;;;;;38.50;33.75;;;;;12.00;76.44;101739.16;5017331;28;45739;-68
2022/03/16 08:11:11;;;;;;;;;38.50;35.00;;;;;12.00;75.83;101738.28;5023576;28;45558;-69
2022/03/16 08:13:37;;;;;;;;;37.50;30.50;;;;;11.99;76.13;101740.13;5023602;28;45444;-68
2022/03/16 08:16:04;;;;;;;;;31.75;28.00;;;;;11.99;76.01;101731.97;5025229;28;45295;-69
2022/03/16 08:18:29;;;;;;;;;31.25;28.25;;;;;11.95;76.13;101729.66;5025059;28;45508;-69
2022/03/16 08:20:55;;;;;;;;;35.50;29.50;;;;;11.95;76.16;101726.94;5025072;28;45291;-68
2022/03/16 08:23:20;;;;;;;;;32.75;28.50;;;;;12.01;76.14;101735.44;5023972;28;45378;-69
2022/03/16 08:25:46;;;;;;;;;32.25;28.00;;;;;12.02;75.58;101725.41;5024834;28;46399;-68
2022/03/16 08:28:12;;;;;;;;;29.00;29.00;;;;;12.03;75.74;101724.41;5024090;28;46672;-69
2022/03/16 08:30:38;;;;;;;;;31.00;27.75;;;;;12.06;76.29;101727.72;5025051;28;45536;-69
2022/03/16 08:33:03;;;;;;;;;34.00;31.25;;;;;12.08;76.02;101724.84;5024793;28;45398;-69
2022/03/16 08:35:29;;;;;;;;;36.75;30.75;;;;;12.15;75.86;101736.06;5024817;28;45419;-69
2022/03/16 08:37:55;;;;;;;;;32.50;30.75;;;;;12.21;75.36;101735.53;5022927;28;45374;-69
2022/03/16 08:40:20;;;;;;;;;43.50;35.00;;;;;12.25;75.20;101731.56;5024861;28;45462;-69
2022/03/16 08:42:46;;;;;;;;;37.50;32.25;;;;;12.26;75.04;101728.69;5024728;28;45226;-67
2022/03/16 08:45:11;;;;;;;;;46.50;35.00;;;;;12.26;75.07;101727.84;5023055;28;46738;-69
2022/03/16 08:47:37;;;;;;;;;33.25;30.75;;;;;12.23;74.24;101728.09;5022974;28;45648;-69
2022/03/16 08:50:04;;;;;;;;;30.75;27.00;;;;;12.23;74.68;101737.13;5023026;28;45320;-69
2022/03/16 08:52:29;;;;;;;;;36.75;32.25;;;;;12.34;74.56;101739.78;5025469;28;45444;-69
2022/03/16 08:54:55;;;;;;;;;35.25;30.25;;;;;12.41;75.05;101735.53;5022107;28;47791;-69
2022/03/16 08:57:22;;;;;;;;;37.25;32.50;;;;;12.51;74.39;101743.72;5024362;28;45315;-68
2022/03/16 08:59:48;;;;;;;;;40.50;32.75;;;;;12.52;74.21;101766.38;5023726;28;45352;-68
2022/03/16 09:02:13;;;;;;;;;34.50;31.00;;;;;12.53;74.18;101751.78;5025338;28;45268;-68
2022/03/16 09:04:39;;;;;;;;;36.75;33.00;;;;;12.56;74.23;101756.97;5023874;28;45479;-67
2022/03/16 09:07:04;;;;;;;;;34.00;28.50;;;;;12.59;73.62;101767.56;5024861;28;45357;-68
2022/03/16 09:09:30;;;;;;;;;35.50;30.00;;;;;12.67;74.03;101770.47;5024139;28;45336;-68
2022/03/16 09:11:56;;;;;;;;;38.25;32.00;;;;;12.73;73.69;101759.88;5024969;28;45240;-69
2022/03/16 09:14:23;;;;;;;;;40.25;33.25;;;;;12.79;73.19;101772.97;5023873;28;47693;-69
2022/03/16 09:16:48;;;;;;;;;43.00;32.00;;;;;12.83;73.05;101766.25;5023198;28;45268;-68
2022/03/16 09:19:20;;;;;;;;;36.00;33.00;;;;;12.90;72.75;101761.09;5020579;28;45593;-69
2022/03/16 09:21:47;;;;;;;;;30.00;28.75;;;;;12.86;72.79;101751.44;5023111;28;45473;-68
2022/03/16 09:24:12;;;;;;;;;36.75;32.50;;;;;12.95;73.47;101758.81;5022474;28;47411;-68
2022/03/16 09:26:39;;;;;;;;;37.25;32.75;;;;;12.99;72.43;101762.13;5024355;28;45161;-68
2022/03/16 09:29:08;;;;;;;;;38.00;32.67;;;;;13.08;72.32;101764.88;5023604;28;45449;-68
2022/03/16 09:31:35;;;;;;;;;30.50;28.75;;;;;13.10;72.05;101762.00;5024859;28;45422;-68
2022/03/16 09:34:02;;;;;;;;;26.00;23.50;;;;;13.14;71.78;101763.50;5022633;28;45351;-67
2022/03/16 09:36:27;;;;;;;;;31.00;25.25;;;;;13.17;71.40;101755.00;5024282;28;45295;-68
2022/03/16 09:38:55;;;;;;;;;33.75;31.50;;;;;13.23;71.27;101758.03;5022255;28;45592;-68
2022/03/16 09:41:21;;;;;;;;;36.75;32.50;;;;;13.27;71.59;101763.22;5024558;28;45283;-68
2022/03/16 09:43:48;;;;;;;;;27.50;25.25;;;;;13.31;71.21;101759.19;5021910;28;47413;-68
2022/03/16 09:46:21;;;;;;;;;31.50;29.50;;;;;13.37;71.16;101750.47;5022815;28;45470;-68
2022/03/16 09:48:46;;;;;;;;;31.50;30.50;;;;;13.47;70.33;101763.09;5023376;28;45225;-68
2022/03/16 09:51:11;;;;;;;;;32.00;29.50;;;;;13.49;69.93;101752.06;5024622;28;45287;-67
2022/03/16 09:53:38;;;;;;;;;32.50;26.50;;;;;13.47;69.97;101752.19;5023281;28;45494;-68
2022/03/16 09:56:05;;;;;;;;;34.25;32.00;;;;;13.61;70.25;101759.09;5023540;28;45299;-68
2022/03/16 09:58:31;;;;;;;;;41.25;32.00;;;;;13.57;69.53;101747.59;5023464;28;45244;-68
2022/03/16 10:00:56;;;;;;;;;41.50;34.50;;;;;13.65;69.33;101749.63;5024215;28;45293;-68
2022/03/16 10:03:25;;;;;;;;;31.75;28.75;;;;;13.71;69.84;101734.53;5035439;28;48224;-68
2022/03/16 10:05:51;;;;;;;;;39.00;31.75;;;;;13.64;68.78;101735.09;5035498;28;45362;-68
2022/03/16 10:08:31;;;;;;;;;40.25;34.00;;;;;13.72;68.50;101741.72;5022852;28;45351;-68
2022/03/16 10:13:52;;;;;;;;;34.50;32.75;;;;;13.98;69.11;101735.47;5012920;28;45814;-69
2022/03/16 10:16:17;;;;;;;;;33.25;32.00;;;;;14.09;68.57;101730.88;5023449;28;45226;-68
2022/03/16 10:18:53;;;;;;;;;34.75;28.25;;;;;14.08;67.89;101737.34;5023068;28;45219;-67
2022/03/16 10:21:19;;;;;;;;;36.50;29.75;;;;;14.16;68.23;101741.06;5024278;28;45359;-68
2022/03/16 10:23:45;;;;;;;;;34.75;30.25;;;;;14.16;68.07;101734.75;5021534;28;46656;-68
2022/03/16 10:26:18;;;;;;;;;42.00;33.00;;;;;14.17;67.08;101725.53;5023182;28;45296;-69
2022/03/16 10:28:48;;;;;;;;;41.00;36.50;;;;;14.22;67.95;101729.53;5021358;28;45389;-68
2022/03/16 10:31:19;;;;;;;;;41.25;31.25;;;;;14.25;67.58;101728.38;5023858;28;45494;-68
2022/03/16 10:33:49;;;;;;;;;38.25;35.50;;;;;14.34;67.30;101731.06;5020225;28;48245;-68
2022/03/16 10:36:17;;;;;;;;;49.25;41.00;;;;;14.32;67.11;101726.75;5014194;28;45742;-69
2022/03/16 10:38:55;;;;;;;;;40.75;33.25;;;;;14.45;67.37;101721.88;5021577;28;45431;-69
2022/03/16 10:46:52;;;;;;;;;34.75;31.75;;;;;14.75;66.67;101724.34;5022999;28;45369;-70
2022/03/16 10:49:20;;;;;;;;;43.25;32.50;;;;;14.78;65.43;101721.28;5021380;28;45559;-69
2022/03/16 10:51:58;;;;;;;;;30.00;26.33;;;;;14.81;65.79;101717.38;5023738;28;45236;-69
2022/03/16 10:54:25;;;;;;;;;42.00;32.75;;;;;14.87;65.47;101724.13;5022621;28;45710;-69
2022/03/16 10:56:51;;;;;;;;;39.75;31.75;;;;;14.95;65.48;101719.59;5022588;28;45413;-71
2022/03/16 10:59:17;;;;;;;;;39.00;32.75;;;;;14.93;64.80;101707.09;5022800;28;45504;-71
2022/03/16 11:01:43;;;;;;;;;30.00;26.33;;;;;15.00;65.39;101702.72;5022889;28;45524;-69
2022/03/16 11:04:09;;;;;;;;;34.00;28.33;;;;;15.10;64.33;101692.56;5022231;28;46325;-69
2022/03/16 11:06:36;;;;;;;;;37.50;33.00;;;;;15.22;64.35;101687.72;5023001;28;45288;-69
2022/03/16 11:09:02;;;;;;;;;32.00;27.00;;;;;15.28;64.50;101685.22;5022064;28;45454;-69
2022/03/16 11:14:13;;;;;;;;;37.00;33.00;;;;;15.44;64.07;101671.69;5015021;28;45738;-69
2022/03/16 11:16:40;;;;;;;;;40.00;33.00;;;;;15.58;64.04;101676.63;5034419;28;45586;-69